• Join FlightAware (Why Join?)
  • Login
  • US Flag 
Gobble Gobble! 
08:58PM EST


 

Airport Tracker/Info


-or-


 

Live Flight TrackerFlight Track Log ✈ N509QS ✈ 24-Jun-2013 ✈ KLAX - KLAS

Flight Track Log - Related Links

Times and Time Zones

All times are in EDT time to prevent confusion due to time zone crossing. See the N509QS flight status page for this flight to view local times or setup timezone preferences in your user account.

Time Position Orientation Groundspeed Altitude Reporting Facility
EDT Latitude Longitude Course Direction KTS MPH feet Rate Location/Type
05:00PM 33.9342 -118.4381 251° West 204 235 2,100  Level Los Angeles Center
05:01PM 33.9144 -118.5081 251° West 221 254 5,400 3,180 Climbing Los Angeles Center
05:02PM 33.8867 -118.5794 245° Southwest 218 251 8,700 2,760 Climbing Los Angeles Center
05:03PM 33.8325 -118.6214 213° Southwest 262 302 11,200 1,920 Climbing Los Angeles Center
05:04PM 33.7856 -118.5433 126° Southeast 307 353 12,800 1,200 Climbing Los Angeles Center
05:05PM 33.8436 -118.4678 47° Northeast 335 386 13,800 1,380 Climbing Los Angeles Center
05:06PM 33.9153 -118.3792 46° Northeast 373 429 15,700 1,860 Climbing Los Angeles Center
05:07PM 33.9831 -118.2625 55° Northeast 416 479 17,700 2,160 Climbing Los Angeles Center
05:08PM 34.0569 -118.1392 54° Northeast 446 513 20,200 2,280 Climbing Los Angeles Center
05:09PM 34.1344 -118.0092 54° Northeast 471 542 22,500 2,040 Climbing Los Angeles Center
05:10PM 34.2142 -117.8731 55° Northeast 493 567 24,500 1,680 Climbing Los Angeles Center
05:11PM 34.2969 -117.7333 54° Northeast 507 583 26,000 1,200 Climbing Los Angeles Center
05:12PM 34.3911 -117.5703 55° Northeast 494 568 27,000 480 Climbing Los Angeles Center
05:13PM 34.4564 -117.4575 55° Northeast 484 557 27,000  Level Los Angeles Center
05:14PM 34.5467 -117.3003 55° Northeast 479 551 27,000  Level Los Angeles Center
05:15PM 34.6175 -117.1783 55° Northeast 452 520 27,000  Level Los Angeles Center
05:16PM 34.6894 -117.0522 55° Northeast 456 525 27,000  Level Los Angeles Center
05:17PM 34.7617 -116.9272 55° Northeast 456 525 27,000  Level Los Angeles Center
05:18PM 34.8333 -116.8006 55° Northeast 457 526 27,000 -360 Level Los Angeles Center
05:19PM 34.9197 -116.6486 55° Northeast 456 525 26,300 -1,020 Descending Los Angeles Center
05:20PM 34.9958 -116.5294 52° Northeast 451 519 25,000 -1,080 Descending Los Angeles Center
05:21PM 35.0833 -116.4233 45° Northeast 445 512 24,100 -600 Descending Los Angeles Center
05:22PM 35.1683 -116.3169 46° Northeast 442 509 23,800 -720 Descending Los Angeles Center
05:24PM 35.2536 -116.2114 45° Northeast 438 504 22,700 -1,680 Descending Los Angeles Center
05:25PM 35.3469 -116.0933 46° Northeast 404 465 20,400 -2,040 Descending Los Angeles Center
05:26PM 35.4247 -115.9947 46° Northeast 403 464 18,600 -1,980 Descending Los Angeles Center
05:26PM 35.4756 -115.9394 42° Northeast 428 493 17,300 -1,980 Descending Los Angeles Center
05:27PM 35.5214 -115.8800 47° Northeast 406 467 16,300 -1,560 Descending Los Angeles Center
05:28PM 35.5800 -115.7967 49° Northeast 388 447 15,000 -1,500 Descending Los Angeles Center
05:29PM 35.6475 -115.7125 45° Northeast 358 412 13,400 -1,020 Descending Los Angeles Center
05:30PM 35.7086 -115.6347 46° Northeast 327 376 13,000 -240 Descending Los Angeles Center
05:31PM 35.7969 -115.5711 30° Northeast 323 372 13,000  Level Los Angeles Center
05:32PM 35.8789 -115.5675 North 293 337 13,000  Level Los Angeles Center
05:33PM 35.9633 -115.5664 North 266 306 13,000 -60 Level Los Angeles Center
05:34PM 36.0306 -115.5578 North 261 300 12,900 -540 Descending Los Angeles Center
05:35PM 36.0500 -115.4811 73° East 276 318 12,000 -840 Descending Los Angeles Center
05:36PM 36.0336 -115.3942 103° East 264 304 11,200 -960 Descending Los Angeles Center
05:37PM 36.0242 -115.2969 97° East 267 307 10,100 -1,080 Descending Los Angeles Center
05:38PM 36.0181 -115.1981 94° East 261 300 9,000 -900 Descending Los Angeles Center
05:39PM 36.0117 -115.1203 96° East 252 290 8,300 -540 Descending Los Angeles Center
05:40PM 36.0069 -115.0394 94° East 229 264 8,000 -240 Descending Los Angeles Center
05:41PM 36.0589 -114.9903 37° Northeast 227 261 7,800 -540 Descending Los Angeles Center
05:42PM 36.1153 -114.9717 15° North 216 249 6,900 -1,200 Descending Los Angeles Center
05:43PM 36.1408 -115.0297 299° West 198 228 5,400 -1,380 Descending Los Angeles Center
05:44PM 36.1481 -115.0911 278° West 164 189 4,200 -1,140 Descending Los Angeles Center
05:45PM 36.1356 -115.1331 250° West 160 184 3,000 -960 Descending Los Angeles Center
05:46PM 36.1072 -115.1525 209° Southwest 121 139 2,300 -840 Descending Los Angeles Center
05:48PM 36.0801 -115.1523 270° West  Level Estimated
05:55PM 36.0801 -115.1523 270° West  Level Estimated